createdAt,value
2023-01-27T00:01:39.304Z,20.40
2023-01-27T00:03:40.988Z,20.40
2023-01-27T00:05:46.045Z,20.40
2023-01-27T00:07:48.028Z,20.40
2023-01-27T00:09:49.699Z,20.30
2023-01-27T00:12:10.260Z,20.30
2023-01-27T00:14:11.934Z,20.30
2023-01-27T00:16:13.634Z,20.30
2023-01-27T00:18:15.292Z,20.30
2023-01-27T00:20:35.334Z,20.30
2023-01-27T00:22:55.758Z,20.30
2023-01-27T00:24:57.455Z,20.30
2023-01-27T00:26:59.414Z,20.30
2023-01-27T00:29:01.225Z,20.30
2023-01-27T00:31:04.178Z,20.20
2023-01-27T00:33:24.641Z,20.30
2023-01-27T00:35:26.291Z,20.30
2023-01-27T00:37:27.899Z,20.30
2023-01-27T00:39:29.546Z,20.20
2023-01-27T00:41:31.203Z,20.20
2023-01-27T00:43:32.912Z,20.20
2023-01-27T00:45:49.678Z,20.20
2023-01-27T00:47:52.387Z,20.20
2023-01-27T00:49:53.983Z,20.20
2023-01-27T00:51:55.559Z,20.20
2023-01-27T00:53:59.174Z,20.20
2023-01-27T00:56:00.854Z,20.20
2023-01-27T00:58:02.531Z,20.10
2023-01-27T01:00:06.005Z,20.20
2023-01-27T01:02:07.757Z,20.20
2023-01-27T01:04:09.432Z,20.20
2023-01-27T01:06:16.407Z,20.20
2023-01-27T01:08:18.639Z,20.10
2023-01-27T01:10:20.298Z,20.20
2023-01-27T01:12:22.000Z,20.10
2023-01-27T01:14:23.667Z,20.10
2023-01-27T01:16:25.990Z,20.10
2023-01-27T01:18:27.683Z,20.10
2023-01-27T01:20:29.395Z,20.10
2023-01-27T01:22:31.133Z,20.10
2023-01-27T01:24:32.860Z,20.10
2023-01-27T01:26:34.490Z,20.10
2023-01-27T01:28:36.412Z,20.10
2023-01-27T01:30:38.308Z,20.10
2023-01-27T01:32:39.980Z,20.10
2023-01-27T01:34:41.694Z,20.10
2023-01-27T01:36:43.430Z,20.10
2023-01-27T01:38:45.705Z,20.10
2023-01-27T01:40:47.394Z,20.10
2023-01-27T01:42:57.264Z,20.10
2023-01-27T01:45:35.692Z,20.10
2023-01-27T01:47:37.483Z,20.10
2023-01-27T01:49:40.895Z,20.10
2023-01-27T01:51:47.623Z,20.10
2023-01-27T01:53:56.058Z,20.10
2023-01-27T01:56:05.090Z,20.00
2023-01-27T01:58:09.983Z,20.10
2023-01-27T02:00:13.132Z,20.10
2023-01-27T02:02:22.236Z,20.00
2023-01-27T02:04:30.163Z,20.00
2023-01-27T02:06:40.747Z,20.00
2023-01-27T02:08:46.084Z,20.00
2023-01-27T02:10:48.927Z,20.00
2023-01-27T02:12:50.692Z,20.00
2023-01-27T02:14:52.615Z,20.00
2023-01-27T02:16:54.696Z,20.00
2023-01-27T02:18:56.361Z,20.00
2023-01-27T02:20:58.653Z,20.00
2023-01-27T02:23:15.668Z,20.00
2023-01-27T02:25:26.346Z,20.00
2023-01-27T02:27:28.167Z,20.00
2023-01-27T02:29:29.823Z,20.00
2023-01-27T02:31:32.139Z,20.00
2023-01-27T02:33:34.224Z,19.90
2023-01-27T02:35:52.161Z,20.00
2023-01-27T02:37:54.068Z,20.00
2023-01-27T02:39:56.963Z,20.00
2023-01-27T02:42:00.138Z,20.00
2023-01-27T02:44:01.907Z,20.00
2023-01-27T02:46:03.633Z,19.90
2023-01-27T02:48:05.481Z,19.90
2023-01-27T02:50:07.583Z,19.90
2023-01-27T02:52:09.209Z,19.90
2023-01-27T02:54:10.999Z,19.90
2023-01-27T02:56:13.358Z,19.90
2023-01-27T02:58:16.304Z,19.90
2023-01-27T03:00:18.377Z,19.90
2023-01-27T03:02:22.769Z,19.90
2023-01-27T03:04:24.449Z,19.90
2023-01-27T03:06:26.182Z,19.90
2023-01-27T03:08:27.847Z,19.90
2023-01-27T03:10:29.648Z,19.90
2023-01-27T03:12:31.319Z,19.90
2023-01-27T03:14:51.421Z,19.90
2023-01-27T03:17:11.587Z,19.90
2023-01-27T03:19:13.225Z,19.90
2023-01-27T03:21:15.694Z,19.90
2023-01-27T03:23:18.911Z,19.90
2023-01-27T03:25:20.701Z,19.90
2023-01-27T03:27:22.864Z,19.80
2023-01-27T03:29:42.949Z,19.80
2023-01-27T03:31:44.691Z,19.80
2023-01-27T03:33:47.594Z,19.80
2023-01-27T03:35:49.419Z,19.80
2023-01-27T03:38:09.671Z,19.80
2023-01-27T03:40:30.509Z,19.80
2023-01-27T03:42:50.878Z,19.80
2023-01-27T03:45:11.534Z,19.80
2023-01-27T03:47:13.341Z,19.80
2023-01-27T03:49:14.954Z,19.80
2023-01-27T03:51:17.571Z,19.80
2023-01-27T03:53:20.314Z,19.80
2023-01-27T03:55:23.142Z,19.80
2023-01-27T03:57:24.789Z,19.80
2023-01-27T03:59:26.416Z,19.80
2023-01-27T04:01:28.137Z,19.80
2023-01-27T04:03:51.743Z,19.80
2023-01-27T04:06:12.171Z,19.80
2023-01-27T04:08:13.812Z,19.80
2023-01-27T04:10:15.758Z,19.80
2023-01-27T04:12:17.647Z,19.80
2023-01-27T04:14:19.589Z,19.80
2023-01-27T04:16:28.963Z,19.80
2023-01-27T04:18:30.688Z,19.80
2023-01-27T04:20:32.333Z,19.80
2023-01-27T04:22:34.053Z,19.80
2023-01-27T04:24:35.806Z,19.80
2023-01-27T04:26:38.458Z,19.80
2023-01-27T04:28:44.674Z,19.80
2023-01-27T04:30:46.691Z,19.80
2023-01-27T04:32:48.319Z,19.80
2023-01-27T04:34:50.094Z,19.80
2023-01-27T04:36:52.294Z,19.80
2023-01-27T04:38:53.989Z,19.90
2023-01-27T04:40:55.990Z,20.00
2023-01-27T04:42:58.099Z,20.10
2023-01-27T04:44:59.843Z,20.10
2023-01-27T04:47:01.515Z,20.20
2023-01-27T04:49:04.030Z,20.30
2023-01-27T04:51:05.788Z,20.30
2023-01-27T04:53:07.525Z,20.30
2023-01-27T04:55:09.686Z,20.40
2023-01-27T04:57:11.341Z,20.50
2023-01-27T04:59:14.187Z,20.60
2023-01-27T05:01:16.359Z,20.70
2023-01-27T05:03:18.062Z,20.80
2023-01-27T05:05:19.739Z,20.90
2023-01-27T05:07:21.423Z,21.00
2023-01-27T05:09:23.329Z,21.10
2023-01-27T05:11:25.105Z,21.10
2023-01-27T05:13:26.735Z,21.10
2023-01-27T05:15:29.206Z,21.10
2023-01-27T05:17:32.319Z,21.20
2023-01-27T05:19:34.149Z,21.20
2023-01-27T05:21:35.880Z,21.20
2023-01-27T05:23:37.669Z,21.20
2023-01-27T05:25:42.770Z,21.10
2023-01-27T05:27:44.430Z,21.10
2023-01-27T05:29:46.132Z,21.00
2023-01-27T05:31:47.798Z,21.00
2023-01-27T05:33:51.480Z,21.00
2023-01-27T05:35:53.135Z,21.00
2023-01-27T05:37:54.732Z,21.00
2023-01-27T05:39:56.435Z,20.90
2023-01-27T05:41:58.079Z,20.90
2023-01-27T05:43:59.880Z,20.90
2023-01-27T05:46:09.591Z,20.90
2023-01-27T05:48:11.254Z,20.90
2023-01-27T05:50:12.881Z,20.90
2023-01-27T05:52:14.536Z,20.90
2023-01-27T05:54:16.198Z,20.90
2023-01-27T05:56:19.080Z,20.90
2023-01-27T05:58:21.407Z,21.00
2023-01-27T06:00:23.439Z,21.00
2023-01-27T06:02:25.210Z,20.90
2023-01-27T06:04:27.110Z,20.90
2023-01-27T06:06:29.947Z,20.90
2023-01-27T06:08:31.621Z,20.90
2023-01-27T06:10:37.614Z,20.90
2023-01-27T06:12:39.221Z,20.90
2023-01-27T06:14:40.855Z,20.90
2023-01-27T06:16:43.571Z,20.90
2023-01-27T06:18:46.272Z,20.90
2023-01-27T06:20:48.093Z,20.90
2023-01-27T06:22:50.566Z,20.90
2023-01-27T06:24:52.212Z,20.90
2023-01-27T06:26:55.352Z,21.00
2023-01-27T06:28:58.168Z,20.90
2023-01-27T06:31:08.312Z,20.90
2023-01-27T06:33:11.439Z,20.90
2023-01-27T06:35:15.081Z,21.00
2023-01-27T06:37:16.851Z,21.00
2023-01-27T06:39:18.492Z,21.00
2023-01-27T06:41:20.209Z,21.00
2023-01-27T06:43:21.959Z,21.00
2023-01-27T06:45:23.911Z,20.90
2023-01-27T06:47:25.557Z,21.00
2023-01-27T06:49:27.239Z,21.00
2023-01-27T06:51:28.860Z,21.00
2023-01-27T06:53:31.575Z,20.90
2023-01-27T06:55:35.283Z,20.90
2023-01-27T06:57:36.928Z,21.00
2023-01-27T06:59:38.597Z,20.90
2023-01-27T07:01:40.330Z,20.90
2023-01-27T07:03:44.445Z,20.90
2023-01-27T07:05:46.680Z,20.90
2023-01-27T07:07:48.285Z,20.90
2023-01-27T07:09:52.768Z,20.90
2023-01-27T07:11:54.651Z,20.90
2023-01-27T07:13:56.264Z,20.90
2023-01-27T07:15:57.967Z,20.90
2023-01-27T07:18:00.820Z,20.90
2023-01-27T07:20:03.270Z,20.90
2023-01-27T07:22:05.006Z,20.90
2023-01-27T07:24:06.914Z,20.90
2023-01-27T07:26:23.321Z,20.90
2023-01-27T07:28:26.433Z,20.80
2023-01-27T07:30:28.679Z,20.80
2023-01-27T07:32:30.343Z,20.80
2023-01-27T07:34:31.971Z,20.80
2023-01-27T07:36:33.613Z,20.80
2023-01-27T07:38:35.298Z,20.80
2023-01-27T07:40:37.135Z,20.80
2023-01-27T07:42:38.971Z,20.80
2023-01-27T07:44:40.611Z,20.80
2023-01-27T07:46:42.195Z,20.80
2023-01-27T07:48:43.825Z,20.80
2023-01-27T07:50:45.844Z,20.80
2023-01-27T07:52:47.572Z,20.70
2023-01-27T07:54:49.192Z,20.70
2023-01-27T07:56:50.874Z,20.70
2023-01-27T07:58:54.801Z,20.70
2023-01-27T08:00:59.571Z,20.60
2023-01-27T08:03:02.666Z,20.70
2023-01-27T08:05:04.622Z,20.70
2023-01-27T08:07:06.316Z,20.70
2023-01-27T08:09:07.962Z,20.70
2023-01-27T08:11:15.444Z,20.70
2023-01-27T08:13:17.571Z,20.70
2023-01-27T08:15:19.472Z,20.70
2023-01-27T08:17:21.168Z,20.70
2023-01-27T08:19:22.923Z,20.70
2023-01-27T08:21:25.325Z,20.60
2023-01-27T08:23:27.135Z,20.70
2023-01-27T08:25:28.803Z,20.70
2023-01-27T08:27:30.433Z,20.70
2023-01-27T08:29:35.790Z,20.60
2023-01-27T08:31:37.504Z,20.70
2023-01-27T08:33:40.273Z,20.60
2023-01-27T08:35:44.392Z,20.60
2023-01-27T08:37:48.523Z,20.60
2023-01-27T08:39:50.337Z,20.70
2023-01-27T08:41:52.433Z,20.70
2023-01-27T08:43:55.168Z,20.60
2023-01-27T08:45:58.037Z,20.60
2023-01-27T08:47:59.839Z,20.60
2023-01-27T08:50:01.520Z,20.60
2023-01-27T08:52:03.230Z,20.60
2023-01-27T08:54:05.011Z,20.60
2023-01-27T08:56:10.381Z,20.60
2023-01-27T08:58:12.059Z,20.60
2023-01-27T09:00:14.518Z,20.60
2023-01-27T09:02:16.545Z,20.60
2023-01-27T09:04:18.391Z,20.60
2023-01-27T09:06:21.738Z,20.60
2023-01-27T09:08:24.403Z,20.50
2023-01-27T09:10:26.163Z,20.60
2023-01-27T09:12:27.926Z,20.50
2023-01-27T09:14:29.599Z,20.60
2023-01-27T09:16:31.485Z,20.50
2023-01-27T09:18:33.618Z,20.50
2023-01-27T09:20:37.063Z,20.50
2023-01-27T09:22:40.251Z,20.50
2023-01-27T09:24:41.937Z,20.50
2023-01-27T09:26:44.056Z,20.50
2023-01-27T09:28:45.752Z,20.50
2023-01-27T09:30:47.533Z,20.50
2023-01-27T09:32:50.100Z,20.50
2023-01-27T09:34:51.816Z,20.50
2023-01-27T09:37:02.558Z,20.40
2023-01-27T09:39:08.961Z,20.40
2023-01-27T09:41:32.106Z,20.40
2023-01-27T09:43:58.677Z,20.40
2023-01-27T09:46:06.714Z,20.40
2023-01-27T09:48:52.972Z,20.40
2023-01-27T09:51:12.740Z,20.40
2023-01-27T09:53:42.177Z,20.30
2023-01-27T09:55:58.076Z,20.40
2023-01-27T09:58:38.261Z,20.40
2023-01-27T10:01:18.295Z,20.40
2023-01-27T10:03:23.653Z,20.30
2023-01-27T10:05:38.880Z,20.30
2023-01-27T10:08:00.705Z,20.30
2023-01-27T10:10:13.926Z,20.30
2023-01-27T10:12:33.687Z,20.30
2023-01-27T10:15:01.770Z,20.30
2023-01-27T10:17:03.409Z,20.30
2023-01-27T10:19:23.004Z,20.30
2023-01-27T10:21:52.639Z,20.30
2023-01-27T10:24:01.525Z,20.30
2023-01-27T10:26:18.284Z,20.30
2023-01-27T10:28:24.263Z,20.20
2023-01-27T10:30:34.821Z,20.20
2023-01-27T10:32:50.391Z,20.20
2023-01-27T10:35:17.138Z,20.20
2023-01-27T10:37:32.501Z,20.20
2023-01-27T10:39:44.195Z,20.20
2023-01-27T10:41:55.036Z,20.20
2023-01-27T10:44:17.221Z,20.10
2023-01-27T10:46:47.505Z,20.20
2023-01-27T10:48:55.157Z,20.20
2023-01-27T10:51:23.486Z,20.10
2023-01-27T10:53:42.936Z,20.10
2023-01-27T10:56:10.740Z,20.10
2023-01-27T10:58:49.130Z,20.10
2023-01-27T11:03:28.689Z,20.00
2023-01-27T11:05:48.317Z,20.00
2023-01-27T11:08:01.010Z,20.10
2023-01-27T11:10:08.260Z,20.10
2023-01-27T11:12:15.892Z,20.10
2023-01-27T11:14:31.059Z,20.10
2023-01-27T11:16:37.290Z,20.10
2023-01-27T11:18:39.524Z,20.10
2023-01-27T11:20:45.935Z,20.10
2023-01-27T11:23:00.248Z,20.10
2023-01-27T11:25:21.212Z,20.10
2023-01-27T11:27:47.523Z,20.10
2023-01-27T11:30:03.816Z,20.10
2023-01-27T11:32:32.659Z,20.00
2023-01-27T11:34:49.775Z,20.00
2023-01-27T11:36:51.868Z,20.00
2023-01-27T11:38:55.785Z,20.00
2023-01-27T11:40:57.469Z,20.00
2023-01-27T11:43:00.645Z,20.00
2023-01-27T11:45:02.894Z,20.00
2023-01-27T11:47:06.919Z,20.00
2023-01-27T11:49:09.843Z,20.00
2023-01-27T11:51:23.980Z,20.00
2023-01-27T11:53:36.746Z,20.00
2023-01-27T11:55:42.204Z,20.00
2023-01-27T11:57:50.676Z,19.90
2023-01-27T12:00:05.949Z,20.00
2023-01-27T12:02:07.573Z,20.00
2023-01-27T12:04:30.545Z,19.90
2023-01-27T12:06:58.982Z,19.90
2023-01-27T12:09:00.723Z,19.90
2023-01-27T12:11:18.861Z,20.00
2023-01-27T12:13:25.168Z,19.90
2023-01-27T12:15:29.561Z,19.90
2023-01-27T12:17:40.468Z,19.90
2023-01-27T12:19:42.875Z,19.90
2023-01-27T12:21:53.482Z,19.90
2023-01-27T12:23:56.693Z,19.90
2023-01-27T12:26:01.384Z,19.90
2023-01-27T12:28:04.667Z,19.90
2023-01-27T12:30:17.561Z,19.90
2023-01-27T12:32:39.730Z,19.90
2023-01-27T12:34:46.114Z,19.90
2023-01-27T12:36:48.372Z,19.90
2023-01-27T12:39:00.444Z,19.90
2023-01-27T12:41:06.201Z,19.90
2023-01-27T12:43:21.312Z,19.90
2023-01-27T12:45:23.254Z,19.90
2023-01-27T12:47:29.267Z,19.90
2023-01-27T12:49:37.789Z,19.90
2023-01-27T12:51:48.391Z,19.90
2023-01-27T12:53:51.493Z,19.90
2023-01-27T12:56:19.895Z,19.90
2023-01-27T12:58:46.077Z,19.90
2023-01-27T13:00:47.823Z,19.90
2023-01-27T13:02:49.498Z,19.90
2023-01-27T13:04:55.488Z,19.90
2023-01-27T13:07:06.392Z,19.90
2023-01-27T13:09:26.838Z,19.90
2023-01-27T13:11:40.164Z,19.90
2023-01-27T13:13:51.133Z,19.90
2023-01-27T13:16:22.360Z,19.90
2023-01-27T13:18:24.276Z,20.00
2023-01-27T13:20:42.774Z,19.90
2023-01-27T13:22:48.495Z,19.90
2023-01-27T13:24:55.680Z,19.90
2023-01-27T13:26:58.044Z,19.90
2023-01-27T13:29:23.929Z,19.90
2023-01-27T13:31:25.590Z,20.00
2023-01-27T13:33:50.221Z,20.00
2023-01-27T13:36:06.325Z,20.10
2023-01-27T13:38:18.191Z,20.10
2023-01-27T13:40:28.344Z,20.20
2023-01-27T13:42:48.963Z,20.20
2023-01-27T13:45:14.778Z,20.30
2023-01-27T13:47:26.891Z,20.30
2023-01-27T13:49:50.300Z,20.40
2023-01-27T13:51:51.951Z,20.40
2023-01-27T13:54:04.531Z,20.50
2023-01-27T13:56:14.984Z,20.50
2023-01-27T13:58:50.332Z,20.60
2023-01-27T14:01:24.037Z,20.60
2023-01-27T14:03:46.573Z,20.60
2023-01-27T14:06:16.921Z,20.70
2023-01-27T14:08:52.697Z,20.70
2023-01-27T14:11:16.020Z,20.70
2023-01-27T14:13:41.931Z,20.70
2023-01-27T14:15:52.779Z,20.70
2023-01-27T14:18:06.107Z,20.70
2023-01-27T14:20:32.233Z,20.70
2023-01-27T14:22:52.734Z,20.70
2023-01-27T14:25:21.689Z,20.70
2023-01-27T14:27:36.984Z,20.70
2023-01-27T14:29:58.542Z,20.60
2023-01-27T14:32:22.249Z,20.60
2023-01-27T14:34:55.494Z,20.70
2023-01-27T14:37:30.110Z,20.70
2023-01-27T14:39:47.693Z,20.70
2023-01-27T14:42:11.377Z,20.70
2023-01-27T14:44:43.485Z,20.70
2023-01-27T14:47:03.877Z,20.80
2023-01-27T14:49:43.699Z,20.80
2023-01-27T14:52:02.729Z,20.80
2023-01-27T14:54:10.224Z,20.90
2023-01-27T14:56:36.739Z,20.90
2023-01-27T14:58:47.064Z,20.90
2023-01-27T15:01:11.851Z,21.00
2023-01-27T15:03:50.033Z,21.00
2023-01-27T15:06:03.089Z,21.00
2023-01-27T15:08:30.297Z,21.10
2023-01-27T15:10:33.764Z,21.10
2023-01-27T15:12:48.110Z,21.10
2023-01-27T15:15:04.842Z,21.00
2023-01-27T15:17:12.531Z,21.00
2023-01-27T15:19:16.872Z,21.00
2023-01-27T15:21:47.686Z,21.00
2023-01-27T15:24:04.435Z,20.90
2023-01-27T15:26:09.075Z,20.90
2023-01-27T15:28:16.107Z,20.90
2023-01-27T15:30:34.464Z,20.90
2023-01-27T15:32:37.570Z,20.90
2023-01-27T15:34:39.594Z,20.90
2023-01-27T15:37:03.210Z,20.90
2023-01-27T15:39:10.688Z,20.90
2023-01-27T15:41:14.663Z,20.90
2023-01-27T15:43:19.681Z,20.90
2023-01-27T15:45:31.175Z,20.90
2023-01-27T15:47:35.470Z,21.00
2023-01-27T15:49:42.627Z,21.00
2023-01-27T15:51:44.515Z,21.00
2023-01-27T15:53:51.221Z,21.00
2023-01-27T15:55:55.585Z,20.90
2023-01-27T15:58:35.518Z,20.90
2023-01-27T16:00:42.655Z,21.00
2023-01-27T16:02:46.984Z,21.00
2023-01-27T16:05:08.187Z,21.00
2023-01-27T16:07:32.676Z,21.00
2023-01-27T16:09:44.557Z,21.00
2023-01-27T16:11:58.980Z,21.00
2023-01-27T16:14:13.032Z,21.00
2023-01-27T16:16:17.413Z,21.00
2023-01-27T16:18:24.904Z,21.00
2023-01-27T16:20:58.169Z,21.00
2023-01-27T16:23:03.089Z,21.00
2023-01-27T16:25:34.431Z,21.00
2023-01-27T16:27:40.034Z,21.00
2023-01-27T16:30:07.692Z,21.00
2023-01-27T16:32:22.284Z,21.00
2023-01-27T16:34:31.303Z,21.00
2023-01-27T16:36:36.735Z,21.00
2023-01-27T16:38:40.933Z,21.00
2023-01-27T16:40:51.138Z,21.00
2023-01-27T16:42:52.813Z,21.00
2023-01-27T16:44:55.189Z,21.10
2023-01-27T16:47:15.090Z,21.00
2023-01-27T16:49:30.047Z,21.10
2023-01-27T16:51:32.977Z,21.10
2023-01-27T16:53:34.851Z,21.10
2023-01-27T16:55:36.555Z,21.10
2023-01-27T16:57:45.030Z,21.10
2023-01-27T16:59:47.080Z,21.10
2023-01-27T17:01:51.802Z,21.10
2023-01-27T17:04:00.658Z,21.10
2023-01-27T17:06:16.187Z,21.10
2023-01-27T17:08:26.518Z,21.10
2023-01-27T17:10:34.876Z,21.10
2023-01-27T17:12:43.200Z,21.10
2023-01-27T17:14:46.812Z,21.20
2023-01-27T17:16:49.781Z,21.10
2023-01-27T17:18:53.766Z,21.10
2023-01-27T17:20:56.475Z,21.10
2023-01-27T17:22:59.260Z,21.10
2023-01-27T17:25:27.477Z,21.10
2023-01-27T17:27:38.390Z,21.10
2023-01-27T17:29:44.356Z,21.10
2023-01-27T17:31:46.103Z,21.10
2023-01-27T17:33:51.498Z,21.10
2023-01-27T17:35:58.930Z,21.10
2023-01-27T17:38:24.872Z,21.20
2023-01-27T17:40:26.468Z,21.20
2023-01-27T17:42:32.948Z,21.10
2023-01-27T17:44:34.655Z,21.10
2023-01-27T17:46:36.653Z,21.20
2023-01-27T17:48:45.436Z,21.20
2023-01-27T17:50:47.221Z,21.20
2023-01-27T17:52:52.667Z,21.20
2023-01-27T17:54:55.253Z,21.20
2023-01-27T17:57:02.819Z,21.20
2023-01-27T17:59:15.811Z,21.20
2023-01-27T18:01:18.436Z,21.20
2023-01-27T18:03:34.985Z,21.20
2023-01-27T18:05:38.188Z,21.20
2023-01-27T18:07:39.836Z,21.20
2023-01-27T18:09:51.238Z,21.20
2023-01-27T18:11:56.328Z,21.20
2023-01-27T18:14:01.568Z,21.20
2023-01-27T18:16:14.759Z,21.20
2023-01-27T18:18:19.817Z,21.20
2023-01-27T18:20:33.640Z,21.20
2023-01-27T18:22:35.260Z,21.20
2023-01-27T18:24:38.303Z,21.20
2023-01-27T18:26:43.321Z,21.20
2023-01-27T18:28:49.841Z,21.20
2023-01-27T18:30:51.732Z,21.20
2023-01-27T18:33:01.431Z,21.20
2023-01-27T18:35:18.476Z,21.20
2023-01-27T18:37:32.845Z,21.10
2023-01-27T18:39:38.928Z,21.20
2023-01-27T18:41:46.915Z,21.20
2023-01-27T18:43:48.628Z,21.20
2023-01-27T18:45:50.564Z,21.30
2023-01-27T18:47:52.299Z,21.30
2023-01-27T18:49:53.905Z,21.30
2023-01-27T18:51:55.552Z,21.30
2023-01-27T18:53:57.203Z,21.30
2023-01-27T18:56:01.456Z,21.30
2023-01-27T18:58:03.124Z,21.30
2023-01-27T19:00:05.323Z,21.30
2023-01-27T19:02:14.999Z,21.30
2023-01-27T19:04:16.705Z,21.30
2023-01-27T19:06:18.931Z,21.30
2023-01-27T19:08:24.114Z,21.30
2023-01-27T19:10:28.519Z,21.30
2023-01-27T19:12:30.258Z,21.30
2023-01-27T19:14:34.725Z,21.30
2023-01-27T19:16:36.943Z,21.40
2023-01-27T19:18:39.985Z,21.40
2023-01-27T19:20:41.782Z,21.40
2023-01-27T19:22:43.895Z,21.40
2023-01-27T19:24:45.824Z,21.40
2023-01-27T19:26:47.496Z,21.40
2023-01-27T19:28:54.961Z,21.50
2023-01-27T19:30:57.427Z,21.40
2023-01-27T19:32:59.096Z,21.40
2023-01-27T19:35:00.773Z,21.50
2023-01-27T19:37:02.457Z,21.50
2023-01-27T19:39:17.325Z,21.50
2023-01-27T19:41:19.101Z,21.50
2023-01-27T19:43:21.010Z,21.60
2023-01-27T19:45:23.294Z,21.60
2023-01-27T19:47:24.996Z,21.60
2023-01-27T19:49:26.634Z,21.60
2023-01-27T19:51:28.332Z,21.50
2023-01-27T19:53:30.005Z,21.60
2023-01-27T19:55:32.734Z,21.60
2023-01-27T19:57:35.595Z,21.60
2023-01-27T19:59:37.296Z,21.60
2023-01-27T20:01:38.974Z,21.50
2023-01-27T20:03:40.724Z,21.50
2023-01-27T20:05:42.585Z,21.50
2023-01-27T20:07:44.753Z,21.40
2023-01-27T20:09:46.407Z,21.40
2023-01-27T20:11:48.075Z,21.40
2023-01-27T20:13:49.701Z,21.40
2023-01-27T20:15:52.337Z,21.40
2023-01-27T20:17:54.954Z,21.40
2023-01-27T20:19:56.616Z,21.30
2023-01-27T20:22:01.007Z,21.30
2023-01-27T20:24:03.074Z,21.30
2023-01-27T20:26:07.720Z,21.30
2023-01-27T20:28:10.389Z,21.30
2023-01-27T20:30:15.857Z,21.30
2023-01-27T20:32:17.512Z,21.30
2023-01-27T20:34:19.132Z,21.20
2023-01-27T20:36:23.250Z,21.20
2023-01-27T20:38:25.301Z,21.20
2023-01-27T20:40:28.841Z,21.20
2023-01-27T20:42:30.630Z,21.20
2023-01-27T20:44:32.437Z,21.20
2023-01-27T20:46:34.769Z,21.20
2023-01-27T20:48:36.432Z,21.20
2023-01-27T20:50:38.087Z,21.20
2023-01-27T20:52:40.149Z,21.20
2023-01-27T20:54:41.764Z,21.20
2023-01-27T20:56:43.406Z,21.20
2023-01-27T20:58:46.041Z,21.20
2023-01-27T21:00:47.747Z,21.20
2023-01-27T21:02:49.451Z,21.10
2023-01-27T21:04:51.118Z,21.10
2023-01-27T21:06:52.825Z,21.10
2023-01-27T21:08:54.614Z,21.10
2023-01-27T21:10:56.532Z,21.10
2023-01-27T21:12:58.143Z,21.10
2023-01-27T21:15:01.598Z,21.10
2023-01-27T21:17:03.663Z,21.10
2023-01-27T21:19:05.425Z,21.10
2023-01-27T21:21:07.086Z,21.10
2023-01-27T21:23:08.932Z,21.10
2023-01-27T21:25:10.641Z,21.00
2023-01-27T21:27:12.865Z,21.00
2023-01-27T21:29:14.660Z,21.00
2023-01-27T21:31:18.192Z,21.00
2023-01-27T21:33:20.025Z,21.00
2023-01-27T21:35:21.762Z,21.00
2023-01-27T21:37:23.434Z,21.00
2023-01-27T21:39:25.224Z,21.00
2023-01-27T21:41:45.435Z,21.00
2023-01-27T21:44:05.612Z,20.90
2023-01-27T21:46:07.312Z,20.90
2023-01-27T21:48:09.004Z,20.90
2023-01-27T21:50:11.867Z,20.90
2023-01-27T21:52:13.560Z,21.00
2023-01-27T21:54:15.156Z,21.00
2023-01-27T21:56:16.806Z,20.90
2023-01-27T21:58:18.424Z,20.90
2023-01-27T22:00:22.702Z,20.90
2023-01-27T22:02:24.558Z,20.90
2023-01-27T22:04:26.354Z,20.90
2023-01-27T22:06:28.057Z,20.90
2023-01-27T22:08:29.693Z,20.90
2023-01-27T22:10:31.369Z,20.90
2023-01-27T22:12:33.179Z,20.90
2023-01-27T22:14:35.172Z,20.90
2023-01-27T22:16:36.875Z,20.80
2023-01-27T22:18:38.550Z,20.90
2023-01-27T22:20:40.468Z,20.90
2023-01-27T22:22:43.597Z,20.80
2023-01-27T22:24:45.518Z,20.80
2023-01-27T22:26:47.540Z,20.80
2023-01-27T22:28:49.207Z,20.80
2023-01-27T22:30:50.919Z,20.80
2023-01-27T22:32:52.750Z,20.80
2023-01-27T22:34:54.455Z,20.80
2023-01-27T22:36:56.103Z,20.80
2023-01-27T22:38:57.696Z,20.80
2023-01-27T22:40:59.363Z,20.80
2023-01-27T22:43:01.561Z,20.80
2023-01-27T22:45:03.378Z,20.80
2023-01-27T22:47:05.661Z,20.80
2023-01-27T22:49:07.313Z,20.80
2023-01-27T22:51:08.989Z,20.70
2023-01-27T22:53:10.978Z,20.70
2023-01-27T22:55:13.362Z,20.70
2023-01-27T22:57:15.495Z,20.70
2023-01-27T22:59:17.164Z,20.70
2023-01-27T23:01:18.867Z,20.70
2023-01-27T23:03:21.929Z,20.70
2023-01-27T23:05:23.613Z,20.70
2023-01-27T23:07:25.703Z,20.70
2023-01-27T23:09:27.356Z,20.70
2023-01-27T23:11:28.977Z,20.70
2023-01-27T23:13:32.125Z,20.70
2023-01-27T23:15:34.427Z,20.70
2023-01-27T23:17:36.166Z,20.70
2023-01-27T23:19:37.921Z,20.70
2023-01-27T23:21:39.580Z,20.70
2023-01-27T23:23:41.245Z,20.70
2023-01-27T23:25:47.175Z,20.70
2023-01-27T23:27:48.857Z,20.70
2023-01-27T23:29:50.491Z,20.70
2023-01-27T23:31:52.671Z,20.70
2023-01-27T23:33:54.362Z,20.70
2023-01-27T23:35:59.150Z,20.70
2023-01-27T23:38:00.777Z,20.70
2023-01-27T23:40:02.472Z,20.70
2023-01-27T23:42:04.215Z,20.60
2023-01-27T23:44:05.816Z,20.70
2023-01-27T23:46:07.482Z,20.60
2023-01-27T23:48:09.142Z,20.70
2023-01-27T23:50:11.184Z,20.60
2023-01-27T23:52:13.011Z,20.60
2023-01-27T23:54:14.709Z,20.60
2023-01-27T23:56:18.994Z,20.60
2023-01-27T23:58:20.885Z,20.60
